createdAt,value
2022-10-30T00:00:50.198Z,23.00
2022-10-30T00:03:18.675Z,23.00
2022-10-30T00:05:48.844Z,22.80
2022-10-30T00:08:19.655Z,23.20
2022-10-30T00:10:50.118Z,22.80
2022-10-30T00:13:21.071Z,22.90
2022-10-30T00:15:51.407Z,23.10
2022-10-30T00:18:20.314Z,23.20
2022-10-30T00:20:48.551Z,22.90
2022-10-30T00:23:16.624Z,22.90
2022-10-30T00:25:44.569Z,23.10
2022-10-30T00:28:12.737Z,22.80
2022-10-30T00:30:42.536Z,23.40
2022-10-30T00:33:10.538Z,23.40
2022-10-30T00:35:38.572Z,23.40
2022-10-30T00:38:06.555Z,22.90
2022-10-30T00:40:34.621Z,23.50
2022-10-30T00:43:02.568Z,22.80
2022-10-30T00:45:30.520Z,23.40
2022-10-30T00:48:04.350Z,22.80
2022-10-30T00:50:37.329Z,23.20
2022-10-30T00:53:09.791Z,23.00
2022-10-30T00:55:47.872Z,23.40
2022-10-30T00:58:18.867Z,22.90
2022-10-30T01:00:53.478Z,23.50
2022-10-30T01:03:24.376Z,23.20
2022-10-30T01:05:58.016Z,22.90
2022-10-30T01:08:26.369Z,23.20
2022-10-30T01:10:54.474Z,23.30
2022-10-30T01:13:24.839Z,22.90
2022-10-30T01:16:20.466Z,23.20
2022-10-30T01:18:59.696Z,23.10
2022-10-30T01:21:51.492Z,22.80
2022-10-30T01:24:42.530Z,23.10
2022-10-30T01:27:28.107Z,23.30
2022-10-30T01:30:08.273Z,23.40
2022-10-30T01:32:49.803Z,23.00
2022-10-30T01:35:25.128Z,22.80
2022-10-30T01:37:58.700Z,23.20
2022-10-30T01:40:26.894Z,23.50
2022-10-30T01:42:57.623Z,23.10
2022-10-30T01:45:44.657Z,23.00
2022-10-30T01:48:51.318Z,22.90
2022-10-30T01:51:36.294Z,23.00
2022-10-30T01:54:16.580Z,23.00
2022-10-30T01:56:56.050Z,23.20
2022-10-30T01:59:30.903Z,22.80
2022-10-30T02:01:59.782Z,23.00
2022-10-30T02:04:28.067Z,22.80
2022-10-30T02:06:57.719Z,22.90
2022-10-30T02:09:26.724Z,22.80
2022-10-30T02:11:55.205Z,22.90
2022-10-30T02:14:28.107Z,23.10
2022-10-30T02:17:00.030Z,22.70
2022-10-30T02:19:28.019Z,22.80
2022-10-30T02:21:57.521Z,22.80
2022-10-30T02:24:25.605Z,22.70
2022-10-30T02:26:53.616Z,22.80
2022-10-30T02:29:21.879Z,22.80
2022-10-30T02:31:50.320Z,22.70
2022-10-30T02:34:18.527Z,22.90
2022-10-30T02:36:46.505Z,22.70
2022-10-30T02:39:15.845Z,23.00
2022-10-30T02:41:43.827Z,23.00
2022-10-30T02:44:11.803Z,22.80
2022-10-30T02:46:39.883Z,22.80
2022-10-30T02:49:07.887Z,22.90
2022-10-30T02:51:35.843Z,22.90
2022-10-30T02:54:03.819Z,22.80
2022-10-30T02:56:33.124Z,22.70
2022-10-30T02:59:01.141Z,23.00
2022-10-30T03:01:29.344Z,22.50
2022-10-30T03:03:57.419Z,22.50
2022-10-30T03:06:25.563Z,22.70
2022-10-30T03:08:53.569Z,22.50
2022-10-30T03:11:22.060Z,22.50
2022-10-30T03:13:51.836Z,22.60
2022-10-30T03:16:23.203Z,22.70
2022-10-30T03:18:53.283Z,22.80
2022-10-30T03:21:24.409Z,22.70
2022-10-30T03:23:52.488Z,22.80
2022-10-30T03:26:21.296Z,22.80
2022-10-30T03:28:50.788Z,22.60
2022-10-30T03:31:20.274Z,22.70
2022-10-30T03:33:48.647Z,22.80
2022-10-30T03:36:16.966Z,22.40
2022-10-30T03:38:45.066Z,22.70
2022-10-30T03:41:13.041Z,22.70
2022-10-30T03:43:40.997Z,22.70
2022-10-30T03:46:11.326Z,22.70
2022-10-30T03:48:39.605Z,22.60
2022-10-30T03:51:07.952Z,22.80
2022-10-30T03:53:36.167Z,22.40
2022-10-30T03:56:05.939Z,22.60
2022-10-30T03:58:34.020Z,22.70
2022-10-30T04:01:03.751Z,22.70
2022-10-30T04:03:33.586Z,22.90
2022-10-30T04:06:01.635Z,22.70
2022-10-30T04:08:29.888Z,22.60
2022-10-30T04:10:57.937Z,22.80
2022-10-30T04:13:26.227Z,22.80
2022-10-30T04:15:57.958Z,22.70
2022-10-30T04:18:26.569Z,22.80
2022-10-30T04:20:56.443Z,22.60
2022-10-30T04:23:24.765Z,22.70
2022-10-30T04:25:52.781Z,22.80
2022-10-30T04:28:21.185Z,22.80
2022-10-30T04:30:49.590Z,22.90
2022-10-30T04:33:17.577Z,22.70
2022-10-30T04:35:45.625Z,22.70
2022-10-30T04:38:16.510Z,22.70
2022-10-30T04:40:45.529Z,22.40
2022-10-30T04:43:15.073Z,22.60
2022-10-30T04:45:43.488Z,22.50
2022-10-30T04:48:14.104Z,23.00
2022-10-30T04:50:43.307Z,22.60
2022-10-30T04:53:15.911Z,22.60
2022-10-30T04:55:44.498Z,22.70
2022-10-30T04:58:13.840Z,22.60
2022-10-30T05:00:42.792Z,22.70
2022-10-30T05:03:17.651Z,22.70
2022-10-30T05:05:46.026Z,22.60
2022-10-30T05:08:15.354Z,22.50
2022-10-30T05:10:43.404Z,22.70
2022-10-30T05:13:12.409Z,22.60
2022-10-30T05:15:40.658Z,22.70
2022-10-30T05:18:08.603Z,22.60
2022-10-30T05:20:36.730Z,22.50
2022-10-30T05:23:05.448Z,22.60
2022-10-30T05:25:34.824Z,22.80
2022-10-30T05:28:05.559Z,22.60
2022-10-30T05:30:35.444Z,22.70
2022-10-30T05:33:06.051Z,22.80
2022-10-30T05:35:36.008Z,22.30
2022-10-30T05:38:07.192Z,22.70
2022-10-30T05:40:36.635Z,22.70
2022-10-30T05:43:05.378Z,22.70
2022-10-30T05:45:33.559Z,22.70
2022-10-30T05:48:04.273Z,22.80
2022-10-30T05:50:32.600Z,22.40
2022-10-30T05:53:02.739Z,22.30
2022-10-30T05:55:31.424Z,22.60
2022-10-30T05:58:02.860Z,22.60
2022-10-30T06:00:39.116Z,22.50
2022-10-30T06:03:10.599Z,22.60
2022-10-30T06:05:39.190Z,22.50
2022-10-30T06:08:08.674Z,22.70
2022-10-30T06:10:37.648Z,22.70
2022-10-30T06:13:08.250Z,22.70
2022-10-30T06:15:36.223Z,22.60
2022-10-30T06:18:04.495Z,22.70
2022-10-30T06:20:32.579Z,22.70
2022-10-30T06:23:02.656Z,22.60
2022-10-30T06:25:37.760Z,22.70
2022-10-30T06:28:11.513Z,22.80
2022-10-30T06:30:39.480Z,22.70
2022-10-30T06:33:07.756Z,22.50
2022-10-30T06:35:35.930Z,22.80
2022-10-30T06:38:04.696Z,22.60
2022-10-30T06:40:32.984Z,22.60
2022-10-30T06:43:01.369Z,22.70
2022-10-30T06:45:30.938Z,22.80
2022-10-30T06:47:59.236Z,22.70
2022-10-30T06:50:27.419Z,22.60
2022-10-30T06:52:55.870Z,22.60
2022-10-30T06:55:23.914Z,22.70
2022-10-30T06:57:56.033Z,22.80
2022-10-30T07:00:24.497Z,22.80
2022-10-30T07:03:02.268Z,22.70
2022-10-30T07:05:31.045Z,22.70
2022-10-30T07:07:59.636Z,22.70
2022-10-30T07:10:27.680Z,22.70
2022-10-30T07:12:57.429Z,22.70
2022-10-30T07:15:26.743Z,22.80
2022-10-30T07:17:57.420Z,22.90
2022-10-30T07:20:30.441Z,22.80
2022-10-30T07:22:58.391Z,22.80
2022-10-30T07:25:26.884Z,22.60
2022-10-30T07:27:56.968Z,22.80
2022-10-30T07:30:27.594Z,22.90
2022-10-30T07:33:00.970Z,22.70
2022-10-30T07:35:31.654Z,22.80
2022-10-30T07:38:04.412Z,23.00
2022-10-30T07:40:33.123Z,22.80
2022-10-30T07:43:03.151Z,22.70
2022-10-30T07:45:33.060Z,22.90
2022-10-30T07:48:01.467Z,22.90
2022-10-30T07:50:31.388Z,23.40
2022-10-30T07:52:59.732Z,22.80
2022-10-30T07:55:27.698Z,22.90
2022-10-30T07:57:55.935Z,22.90
2022-10-30T08:00:24.284Z,23.30
2022-10-30T08:02:53.245Z,23.20
2022-10-30T08:05:25.551Z,23.30
2022-10-30T08:07:59.763Z,23.00
2022-10-30T08:10:28.436Z,23.60
2022-10-30T08:12:56.392Z,23.50
2022-10-30T08:15:24.700Z,23.70
2022-10-30T08:17:53.348Z,23.20
2022-10-30T08:20:23.400Z,23.60
2022-10-30T08:22:53.175Z,23.70
2022-10-30T08:25:25.705Z,23.30
2022-10-30T08:27:56.376Z,23.40
2022-10-30T08:30:26.145Z,23.60
2022-10-30T08:32:58.208Z,23.60
2022-10-30T08:35:26.642Z,23.70
2022-10-30T08:37:56.841Z,23.80
2022-10-30T08:40:27.619Z,23.70
2022-10-30T08:42:57.724Z,23.80
2022-10-30T08:45:29.979Z,23.80
2022-10-30T08:48:01.145Z,23.80
2022-10-30T08:50:29.981Z,23.20
2022-10-30T08:53:01.980Z,23.10
2022-10-30T08:55:32.132Z,23.40
2022-10-30T08:58:00.594Z,22.90
2022-10-30T09:00:29.178Z,22.80
2022-10-30T09:02:58.163Z,22.80
2022-10-30T09:05:26.571Z,22.70
2022-10-30T09:07:58.420Z,22.40
2022-10-30T09:10:26.850Z,22.30
2022-10-30T09:13:02.259Z,22.70
2022-10-30T09:15:30.247Z,23.00
2022-10-30T09:17:59.549Z,23.10
2022-10-30T09:20:28.853Z,23.00
2022-10-30T09:22:57.281Z,23.20
2022-10-30T09:25:25.530Z,23.60
2022-10-30T09:27:53.531Z,23.80
2022-10-30T09:30:23.862Z,23.80
2022-10-30T09:32:57.385Z,23.90
2022-10-30T09:35:26.633Z,23.80
2022-10-30T09:37:54.718Z,23.70
2022-10-30T09:40:31.766Z,23.80
2022-10-30T09:43:06.875Z,23.60
2022-10-30T09:46:23.689Z,23.70
2022-10-30T09:49:20.086Z,23.70
2022-10-30T09:52:20.471Z,23.80
2022-10-30T09:55:29.643Z,23.90
2022-10-30T09:58:13.026Z,23.50
2022-10-30T10:00:49.011Z,23.60
2022-10-30T10:03:43.073Z,23.70
2022-10-30T10:06:18.798Z,23.70
2022-10-30T10:08:53.047Z,23.70
2022-10-30T10:11:27.271Z,23.80
2022-10-30T10:14:00.017Z,23.70
2022-10-30T10:16:31.735Z,23.70
2022-10-30T10:19:10.468Z,23.80
2022-10-30T10:21:45.899Z,23.90
2022-10-30T10:24:20.448Z,23.80
2022-10-30T10:26:51.558Z,23.70
2022-10-30T10:29:39.299Z,23.80
2022-10-30T10:32:50.499Z,24.00
2022-10-30T10:35:56.919Z,24.20
2022-10-30T10:38:40.495Z,24.00
2022-10-30T10:41:20.041Z,23.80
2022-10-30T10:44:06.012Z,24.00
2022-10-30T10:46:53.349Z,24.10
2022-10-30T10:49:43.410Z,24.00
2022-10-30T10:52:19.028Z,24.00
2022-10-30T10:54:51.168Z,24.10
2022-10-30T10:57:27.587Z,24.40
2022-10-30T11:00:02.696Z,24.30
2022-10-30T11:02:38.939Z,24.30
2022-10-30T11:05:17.911Z,24.40
2022-10-30T11:07:51.161Z,24.30
2022-10-30T11:10:21.360Z,24.40
2022-10-30T11:12:49.456Z,24.40
2022-10-30T11:15:30.248Z,24.50
2022-10-30T11:18:03.446Z,24.50
2022-10-30T11:20:41.544Z,24.50
2022-10-30T11:23:42.065Z,24.60
2022-10-30T11:26:30.644Z,24.50
2022-10-30T11:29:03.172Z,24.50
2022-10-30T11:31:37.899Z,24.40
2022-10-30T11:34:25.768Z,24.40
2022-10-30T11:36:55.415Z,24.50
2022-10-30T11:39:27.086Z,24.50
2022-10-30T11:42:03.104Z,24.50
2022-10-30T11:44:37.501Z,24.50
2022-10-30T11:47:07.357Z,24.50
2022-10-30T11:49:44.761Z,24.20
2022-10-30T11:52:15.400Z,24.50
2022-10-30T11:54:49.135Z,24.60
2022-10-30T11:57:23.704Z,24.60
2022-10-30T11:59:55.497Z,24.50
2022-10-30T12:02:28.275Z,24.50
2022-10-30T12:05:01.862Z,24.50
2022-10-30T12:07:33.151Z,24.60
2022-10-30T12:10:04.323Z,24.60
2022-10-30T12:12:37.404Z,24.30
2022-10-30T12:15:18.078Z,24.50
2022-10-30T12:17:52.739Z,24.50
2022-10-30T12:20:21.580Z,24.60
2022-10-30T12:22:50.175Z,24.60
2022-10-30T12:25:25.451Z,24.50
2022-10-30T12:28:01.814Z,24.50
2022-10-30T12:30:32.208Z,24.50
2022-10-30T12:33:07.336Z,24.60
2022-10-30T12:35:42.554Z,24.50
2022-10-30T12:38:20.155Z,24.60
2022-10-30T12:41:01.201Z,24.50
2022-10-30T12:43:29.692Z,24.40
2022-10-30T12:46:11.560Z,24.40
2022-10-30T12:48:49.372Z,24.10
2022-10-30T12:51:24.234Z,24.30
2022-10-30T12:54:00.282Z,24.50
2022-10-30T12:56:35.108Z,24.30
2022-10-30T12:59:24.319Z,24.40
2022-10-30T13:02:00.735Z,24.20
2022-10-30T13:04:34.666Z,24.20
2022-10-30T13:07:14.807Z,24.20
2022-10-30T13:09:49.584Z,24.40
2022-10-30T13:12:23.335Z,24.50
2022-10-30T13:14:56.514Z,24.30
2022-10-30T13:17:25.318Z,24.30
2022-10-30T13:19:53.272Z,24.40
2022-10-30T13:22:27.393Z,24.30
2022-10-30T13:25:04.494Z,24.30
2022-10-30T13:27:42.228Z,24.30
2022-10-30T13:30:16.541Z,24.30
2022-10-30T13:33:03.822Z,24.50
2022-10-30T13:35:38.350Z,24.50
2022-10-30T13:38:25.799Z,24.40
2022-10-30T13:41:01.674Z,24.50
2022-10-30T13:43:42.990Z,24.30
2022-10-30T13:46:30.278Z,24.50
2022-10-30T13:49:27.476Z,24.50
2022-10-30T13:52:02.507Z,24.30
2022-10-30T13:54:34.867Z,24.50
2022-10-30T13:57:13.673Z,24.40
2022-10-30T13:59:56.913Z,24.40
2022-10-30T14:02:47.899Z,24.60
2022-10-30T14:05:29.085Z,24.00
2022-10-30T14:08:09.776Z,24.50
2022-10-30T14:10:49.513Z,24.30
2022-10-30T14:13:26.817Z,24.30
2022-10-30T14:16:02.131Z,24.40
2022-10-30T14:18:33.741Z,24.30
2022-10-30T14:21:54.323Z,24.00
2022-10-30T14:27:09.404Z,23.90
2022-10-30T14:29:47.098Z,24.20
2022-10-30T14:32:43.271Z,24.20
2022-10-30T14:35:41.087Z,24.00
2022-10-30T14:38:27.768Z,24.30
2022-10-30T14:41:29.292Z,24.00
2022-10-30T14:44:07.498Z,24.30
2022-10-30T14:46:45.801Z,24.30
2022-10-30T14:49:43.972Z,24.30
2022-10-30T14:52:29.725Z,24.30
2022-10-30T14:55:15.367Z,24.20
2022-10-30T14:57:50.435Z,23.90
2022-10-30T15:00:42.345Z,24.30
2022-10-30T15:03:24.983Z,23.80
2022-10-30T15:05:58.610Z,24.30
2022-10-30T15:08:56.929Z,24.20
2022-10-30T15:11:47.950Z,24.10
2022-10-30T15:14:40.047Z,24.00
2022-10-30T15:17:27.352Z,24.00
2022-10-30T15:19:55.792Z,24.20
2022-10-30T15:22:29.261Z,24.20
2022-10-30T15:24:57.467Z,24.20
2022-10-30T15:27:27.445Z,24.30
2022-10-30T15:29:57.785Z,24.00
2022-10-30T15:32:26.754Z,23.90
2022-10-30T15:34:59.867Z,24.20
2022-10-30T15:37:29.897Z,24.10
2022-10-30T15:40:19.302Z,24.20
2022-10-30T15:42:49.611Z,23.80
2022-10-30T15:45:21.703Z,24.20
2022-10-30T15:47:58.420Z,23.90
2022-10-30T15:50:27.404Z,23.90
2022-10-30T15:52:57.300Z,23.80
2022-10-30T15:55:30.326Z,24.10
2022-10-30T15:58:03.812Z,23.70
2022-10-30T16:00:35.814Z,23.80
2022-10-30T16:03:06.792Z,23.80
2022-10-30T16:05:35.812Z,23.90
2022-10-30T16:08:15.099Z,23.90
2022-10-30T16:10:45.133Z,23.70
2022-10-30T16:13:18.884Z,23.90
2022-10-30T16:15:48.340Z,23.90
2022-10-30T16:18:21.082Z,23.80
2022-10-30T16:20:52.838Z,23.90
2022-10-30T16:23:22.949Z,23.80
2022-10-30T16:25:56.958Z,23.90
2022-10-30T16:28:29.530Z,23.70
2022-10-30T16:31:00.994Z,24.10
2022-10-30T16:33:31.583Z,23.70
2022-10-30T16:36:01.285Z,23.70
2022-10-30T16:38:36.603Z,24.00
2022-10-30T16:41:06.565Z,23.80
2022-10-30T16:43:35.944Z,24.10
2022-10-30T16:46:35.250Z,23.60
2022-10-30T16:49:07.490Z,23.70
2022-10-30T16:51:35.691Z,23.80
2022-10-30T16:54:05.410Z,23.70
2022-10-30T16:56:34.216Z,23.80
2022-10-30T16:59:09.615Z,23.80
2022-10-30T17:01:37.687Z,23.70
2022-10-30T17:04:06.663Z,23.60
2022-10-30T17:06:41.116Z,24.00
2022-10-30T17:09:22.608Z,23.80
2022-10-30T17:12:08.583Z,24.20
2022-10-30T17:14:51.762Z,23.80
2022-10-30T17:17:29.559Z,23.80
2022-10-30T17:20:00.740Z,23.60
2022-10-30T17:22:29.517Z,23.60
2022-10-30T17:25:00.117Z,23.90
2022-10-30T17:27:46.693Z,23.60
2022-10-30T17:30:38.185Z,23.60
2022-10-30T17:33:36.096Z,23.70
2022-10-30T17:36:05.590Z,23.60
2022-10-30T17:38:34.190Z,23.70
2022-10-30T17:41:04.657Z,23.50
2022-10-30T17:43:36.716Z,23.60
2022-10-30T17:46:05.906Z,23.60
2022-10-30T17:48:33.854Z,23.80
2022-10-30T17:51:01.841Z,23.60
2022-10-30T17:53:29.769Z,23.60
2022-10-30T17:56:05.124Z,23.50
2022-10-30T17:58:33.318Z,23.50
2022-10-30T18:01:01.672Z,23.50
2022-10-30T18:03:29.990Z,23.60
2022-10-30T18:06:00.443Z,23.50
2022-10-30T18:08:28.560Z,23.50
2022-10-30T18:10:56.506Z,23.60
2022-10-30T18:13:25.780Z,23.70
2022-10-30T18:15:57.378Z,23.70
2022-10-30T18:18:25.457Z,23.10
2022-10-30T18:20:53.410Z,23.60
2022-10-30T18:23:52.007Z,23.70
2022-10-30T18:26:17.362Z,23.10
2022-10-30T18:28:46.839Z,23.60
2022-10-30T18:31:17.684Z,23.70
2022-10-30T18:33:46.968Z,23.70
2022-10-30T18:36:17.097Z,23.40
2022-10-30T18:38:45.263Z,23.50
2022-10-30T18:41:16.499Z,23.60
2022-10-30T18:43:47.195Z,23.70
2022-10-30T18:46:16.697Z,23.80
2022-10-30T18:48:45.325Z,23.90
2022-10-30T18:51:18.300Z,23.70
2022-10-30T18:53:51.562Z,23.70
2022-10-30T18:56:21.049Z,23.70
2022-10-30T18:58:54.838Z,23.80
2022-10-30T19:01:27.307Z,23.60
2022-10-30T19:03:55.421Z,23.60
2022-10-30T19:06:25.224Z,23.70
2022-10-30T19:08:53.226Z,23.70
2022-10-30T19:11:24.763Z,23.70
2022-10-30T19:13:55.558Z,23.70
2022-10-30T19:16:25.536Z,23.80
2022-10-30T19:18:54.182Z,23.60
2022-10-30T19:21:25.273Z,23.80
2022-10-30T19:23:53.697Z,23.40
2022-10-30T19:26:21.762Z,23.60
2022-10-30T19:28:49.800Z,23.90
2022-10-30T19:31:20.060Z,23.80
2022-10-30T19:33:53.035Z,23.80
2022-10-30T19:36:30.730Z,23.70
2022-10-30T19:39:01.824Z,23.80
2022-10-30T19:41:35.320Z,23.90
2022-10-30T19:44:03.323Z,23.60
2022-10-30T19:46:32.910Z,23.70
2022-10-30T19:49:00.924Z,23.60
2022-10-30T19:51:29.411Z,23.80
2022-10-30T19:53:57.632Z,24.00
2022-10-30T19:56:25.729Z,23.60
2022-10-30T19:58:53.644Z,23.60
2022-10-30T20:01:21.742Z,23.80
2022-10-30T20:03:51.125Z,23.60
2022-10-30T20:06:21.269Z,23.50
2022-10-30T20:08:49.429Z,23.90
2022-10-30T20:11:17.391Z,23.70
2022-10-30T20:13:47.067Z,23.50
2022-10-30T20:16:16.739Z,23.80
2022-10-30T20:18:44.710Z,23.70
2022-10-30T20:21:14.730Z,23.90
2022-10-30T20:23:42.736Z,23.70
2022-10-30T20:26:24.859Z,24.10
2022-10-30T20:28:53.469Z,23.80
2022-10-30T20:31:21.614Z,23.70
2022-10-30T20:33:49.538Z,23.70
2022-10-30T20:36:19.762Z,23.80
2022-10-30T20:38:47.732Z,23.60
2022-10-30T20:41:22.906Z,23.70
2022-10-30T20:43:51.343Z,24.10
2022-10-30T20:46:20.158Z,23.50
2022-10-30T20:48:48.524Z,24.10
2022-10-30T20:51:17.978Z,23.60
2022-10-30T20:53:45.926Z,23.60
2022-10-30T20:56:13.948Z,24.10
2022-10-30T20:58:42.454Z,23.50
2022-10-30T21:01:10.729Z,23.80
2022-10-30T21:03:38.790Z,23.70
2022-10-30T21:06:09.500Z,23.60
2022-10-30T21:08:38.845Z,24.10
2022-10-30T21:11:08.644Z,23.90
2022-10-30T21:13:37.947Z,23.80
2022-10-30T21:16:09.122Z,24.00
2022-10-30T21:18:37.362Z,24.20
2022-10-30T21:21:07.705Z,23.60
2022-10-30T21:23:35.751Z,23.80
2022-10-30T21:26:09.578Z,23.80
2022-10-30T21:28:37.609Z,23.70
2022-10-30T21:31:08.144Z,24.10
2022-10-30T21:33:37.765Z,23.60
2022-10-30T21:36:11.979Z,23.60
2022-10-30T21:38:42.713Z,23.50
2022-10-30T21:41:14.243Z,23.80
2022-10-30T21:43:42.574Z,24.10
2022-10-30T21:46:12.779Z,23.60
2022-10-30T21:48:40.825Z,23.60
2022-10-30T21:51:11.470Z,24.20
2022-10-30T21:53:40.291Z,23.60
2022-10-30T21:56:12.626Z,23.60
2022-10-30T21:58:40.707Z,24.10
2022-10-30T22:01:15.276Z,23.80
2022-10-30T22:03:43.928Z,23.50
2022-10-30T22:06:14.875Z,23.80
2022-10-30T22:08:45.820Z,23.80
2022-10-30T22:11:15.983Z,23.60
2022-10-30T22:13:44.235Z,23.70
2022-10-30T22:16:15.335Z,23.90
2022-10-30T22:18:43.305Z,23.60
2022-10-30T22:21:13.707Z,23.50
2022-10-30T22:23:42.918Z,23.50
2022-10-30T22:26:15.742Z,23.90
2022-10-30T22:28:44.714Z,23.80
2022-10-30T22:31:15.682Z,23.50
2022-10-30T22:33:44.635Z,23.50
2022-10-30T22:36:18.130Z,23.50
2022-10-30T22:38:46.595Z,24.00
2022-10-30T22:41:18.835Z,23.50
2022-10-30T22:43:48.969Z,23.70
2022-10-30T22:46:19.355Z,23.60
2022-10-30T22:48:47.320Z,24.10
2022-10-30T22:51:17.932Z,23.70
2022-10-30T22:53:46.996Z,24.10
2022-10-30T22:56:20.461Z,23.60
2022-10-30T22:58:50.555Z,24.10
2022-10-30T23:01:22.033Z,23.80
2022-10-30T23:03:50.640Z,23.90
2022-10-30T23:06:19.746Z,24.10
2022-10-30T23:08:48.470Z,23.70
2022-10-30T23:11:17.801Z,23.70
2022-10-30T23:13:46.225Z,23.90
2022-10-30T23:16:19.652Z,23.60
2022-10-30T23:18:48.399Z,24.00
2022-10-30T23:21:19.711Z,23.70
2022-10-30T23:23:47.966Z,23.70
2022-10-30T23:26:19.672Z,23.50
2022-10-30T23:28:48.808Z,23.50
2022-10-30T23:31:21.756Z,23.50
2022-10-30T23:33:50.682Z,23.40
2022-10-30T23:36:19.597Z,23.70
2022-10-30T23:38:52.859Z,23.30
2022-10-30T23:41:22.957Z,23.50
2022-10-30T23:43:54.589Z,23.50
2022-10-30T23:46:22.963Z,23.40
2022-10-30T23:48:51.279Z,23.50
2022-10-30T23:51:19.833Z,23.40
2022-10-30T23:53:48.044Z,23.60
2022-10-30T23:56:17.099Z,23.60
2022-10-30T23:58:47.785Z,23.50
